Time;durP1;ratioP1;P1;durP2;ratioP2;P2;SDS_P1;SDS_P2;PMS_P1;PMS_P2;Temp;Humidity;BMP_temperature;BMP_pressure;BME280_temperature;BME280_humidity;BME280_pressure;Samples;Min_cycle;Max_cycle;Signal;HPM_P1;HPM_P2
2022/10/16 00:01:19;;;;;;;1999.90;999.90;;;15.00;99.90;;;;;;4975649;28;20857;-67
2022/10/16 00:03:45;;;;;;;1999.90;999.90;;;15.00;99.90;;;;;;4975447;28;20413;-67
2022/10/16 00:06:12;;;;;;;1999.90;999.90;;;15.00;99.90;;;;;;4975371;28;20451;-67
2022/10/16 00:08:38;;;;;;;1999.90;999.90;;;15.00;99.90;;;;;;4975257;28;20397;-67
2022/10/16 00:11:07;;;;;;;1999.90;999.90;;;14.90;99.90;;;;;;4975201;28;20426;-68
2022/10/16 00:13:34;;;;;;;1999.90;999.90;;;14.90;99.90;;;;;;4975330;28;20409;-67
2022/10/16 00:16:01;;;;;;;1999.90;999.90;;;14.90;99.90;;;;;;4975140;28;20417;-67
2022/10/16 00:18:27;;;;;;;1999.90;999.90;;;14.90;99.90;;;;;;4975157;28;20412;-67
2022/10/16 00:20:53;;;;;;;1999.90;999.90;;;14.90;99.90;;;;;;4974879;28;20453;-67
2022/10/16 00:23:19;;;;;;;1999.90;999.90;;;14.90;99.90;;;;;;4974987;28;20412;-68
2022/10/16 00:25:53;;;;;;;1999.90;999.90;;;14.90;99.90;;;;;;4975335;28;20816;-67
2022/10/16 00:28:19;;;;;;;1999.90;999.90;;;14.90;99.90;;;;;;4975147;28;20409;-68
2022/10/16 00:30:44;;;;;;;1999.90;999.90;;;14.80;99.90;;;;;;4975619;28;20444;-67
2022/10/16 00:33:10;;;;;;;1999.90;999.90;;;14.80;99.90;;;;;;4975531;28;20216;-67
2022/10/16 00:35:35;;;;;;;1999.90;999.90;;;14.70;99.90;;;;;;4974901;28;20183;-67
2022/10/16 00:38:01;;;;;;;1999.90;999.90;;;14.70;99.90;;;;;;4974770;28;20596;-67
2022/10/16 00:40:28;;;;;;;1999.90;999.90;;;14.60;99.90;;;;;;4975015;28;20181;-68
2022/10/16 00:42:53;;;;;;;1999.90;999.90;;;14.70;99.90;;;;;;4975322;28;20183;-67
2022/10/16 00:45:19;;;;;;;1999.90;999.90;;;14.60;99.90;;;;;;4974578;28;20563;-67
2022/10/16 00:47:48;;;;;;;1999.90;999.90;;;14.50;99.90;;;;;;4973777;28;20190;-68
2022/10/16 00:50:34;;;;;;;1999.90;999.90;;;14.50;99.90;;;;;;4974377;28;20165;-67
2022/10/16 00:53:01;;;;;;;1999.90;999.90;;;14.40;99.90;;;;;;4974937;28;20399;-67
2022/10/16 00:55:29;;;;;;;1999.90;999.90;;;14.40;99.90;;;;;;4974820;28;20489;-67
2022/10/16 00:57:57;;;;;;;1999.90;999.90;;;14.40;99.90;;;;;;4974778;28;20410;-67
2022/10/16 01:00:25;;;;;;;1999.90;999.90;;;14.40;99.90;;;;;;4974586;28;20493;-67
2022/10/16 01:02:56;;;;;;;1999.90;999.90;;;14.40;99.90;;;;;;4974202;28;20851;-67
2022/10/16 01:05:27;;;;;;;1999.90;999.90;;;14.40;99.90;;;;;;4974571;28;20962;-68
2022/10/16 01:08:05;;;;;;;1999.90;999.90;;;14.30;99.90;;;;;;4974211;28;20407;-68
2022/10/16 01:10:40;;;;;;;1999.90;999.90;;;14.30;99.90;;;;;;4974493;28;20397;-67
2022/10/16 01:13:12;;;;;;;1999.90;999.90;;;14.30;99.90;;;;;;4975201;28;20457;-67
2022/10/16 01:15:56;;;;;;;1999.90;999.90;;;14.30;99.90;;;;;;4974515;28;20815;-68
2022/10/16 01:18:44;;;;;;;1999.90;999.90;;;14.30;99.90;;;;;;4973689;28;20855;-68
2022/10/16 01:21:12;;;;;;;1999.90;999.90;;;14.30;99.90;;;;;;4961481;28;20955;-68
2022/10/16 01:23:56;;;;;;;1999.90;999.90;;;14.30;99.90;;;;;;4973791;28;20901;-67
2022/10/16 01:26:34;;;;;;;1999.90;999.90;;;14.20;99.90;;;;;;4973709;28;20454;-67
2022/10/16 01:29:11;;;;;;;1999.90;999.90;;;14.30;99.90;;;;;;4973912;28;20496;-67
2022/10/16 01:31:40;;;;;;;1999.90;999.90;;;14.20;99.90;;;;;;4973634;28;20439;-67
2022/10/16 01:34:12;;;;;;;1999.90;999.90;;;14.20;99.90;;;;;;4973670;28;20425;-68
2022/10/16 01:36:49;;;;;;;1999.90;999.90;;;14.20;99.90;;;;;;4973863;28;20491;-67
2022/10/16 01:39:20;;;;;;;1999.90;999.90;;;14.20;99.90;;;;;;4973610;28;20892;-67
2022/10/16 01:41:51;;;;;;;1999.90;999.90;;;14.20;99.90;;;;;;4973571;28;20440;-67
2022/10/16 01:44:24;;;;;;;1999.90;999.90;;;14.20;99.90;;;;;;4973469;28;20406;-67
2022/10/16 01:46:52;;;;;;;1999.90;999.90;;;14.20;99.90;;;;;;4973277;28;20410;-67
2022/10/16 01:49:20;;;;;;;1999.90;999.90;;;14.20;99.90;;;;;;4973601;28;20406;-68
2022/10/16 01:51:48;;;;;;;1999.90;999.90;;;14.20;99.90;;;;;;4973246;28;20473;-68
2022/10/16 01:54:16;;;;;;;1999.90;999.90;;;14.20;99.90;;;;;;4973520;28;20430;-68
2022/10/16 01:56:43;;;;;;;1999.90;999.90;;;14.20;99.90;;;;;;4973211;28;20406;-68
2022/10/16 01:59:16;;;;;;;1999.90;999.90;;;14.20;99.90;;;;;;4974286;28;20411;-67
2022/10/16 02:01:50;;;;;;;1999.90;999.90;;;14.20;99.90;;;;;;4974256;28;20440;-68
2022/10/16 02:04:40;;;;;;;1999.90;999.90;;;14.30;99.90;;;;;;4973545;28;20458;-67
2022/10/16 02:07:06;;;;;;;1999.90;999.90;;;14.30;99.90;;;;;;4973972;28;20505;-67
2022/10/16 02:09:35;;;;;;;1999.90;999.90;;;14.30;99.90;;;;;;4974071;28;20412;-67
2022/10/16 02:12:08;;;;;;;1999.90;999.90;;;14.30;99.90;;;;;;4973364;28;20458;-68
2022/10/16 02:14:37;;;;;;;1999.90;999.90;;;14.30;99.90;;;;;;4973307;28;20434;-68
2022/10/16 02:17:14;;;;;;;1999.90;999.90;;;14.40;99.90;;;;;;4972976;28;20419;-67
2022/10/16 02:19:41;;;;;;;1999.90;999.90;;;14.50;99.90;;;;;;4973804;28;20953;-67
2022/10/16 02:22:14;;;;;;;1999.90;999.90;;;14.60;99.90;;;;;;4973139;28;20990;-67
2022/10/16 02:24:40;;;;;;;1999.90;999.90;;;14.60;99.90;;;;;;4973082;28;20593;-67
2022/10/16 02:27:17;;;;;;;1999.90;999.90;;;14.60;99.90;;;;;;4973140;28;20496;-67
2022/10/16 02:29:49;;;;;;;1999.90;999.90;;;14.60;99.90;;;;;;4973121;28;20174;-67
2022/10/16 02:32:19;;;;;;;1999.90;999.90;;;14.60;99.90;;;;;;4974013;28;20431;-67
2022/10/16 02:34:48;;;;;;;1999.90;999.90;;;14.60;99.90;;;;;;4973566;28;20420;-68
2022/10/16 02:37:15;;;;;;;1999.90;999.90;;;14.60;99.90;;;;;;4973052;28;20437;-67
2022/10/16 02:39:41;;;;;;;1999.90;999.90;;;14.70;99.90;;;;;;4973272;28;20824;-67
2022/10/16 02:42:12;;;;;;;1999.90;999.90;;;14.70;99.90;;;;;;4955779;28;20472;-67
2022/10/16 02:44:38;;;;;;;1999.90;999.90;;;14.60;99.90;;;;;;4973319;28;20951;-67
2022/10/16 02:47:04;;;;;;;1999.90;999.90;;;14.50;99.90;;;;;;4973004;28;20420;-67
2022/10/16 02:49:29;;;;;;;1999.90;999.90;;;14.50;99.90;;;;;;4972958;28;20292;-67
2022/10/16 02:51:55;;;;;;;1999.90;999.90;;;14.50;99.90;;;;;;4973077;28;20894;-67
2022/10/16 02:54:20;;;;;;;1999.90;999.90;;;14.50;99.90;;;;;;4972922;28;20163;-67
2022/10/16 02:56:46;;;;;;;1999.90;999.90;;;14.40;99.90;;;;;;4973142;28;20173;-67
2022/10/16 02:59:12;;;;;;;1999.90;999.90;;;14.40;99.90;;;;;;4973400;28;20520;-68
2022/10/16 03:01:37;;;;;;;1999.90;999.90;;;14.40;99.90;;;;;;4972987;28;20623;-67
2022/10/16 03:04:03;;;;;;;1999.90;999.90;;;14.40;99.90;;;;;;4972719;28;20172;-68
2022/10/16 03:06:28;;;;;;;1999.90;999.90;;;14.30;99.90;;;;;;4972516;28;20695;-68
2022/10/16 03:08:54;;;;;;;1999.90;999.90;;;14.20;99.90;;;;;;4972529;28;20163;-68
2022/10/16 03:11:19;;;;;;;1999.90;999.90;;;14.10;99.90;;;;;;4973216;28;20191;-68
2022/10/16 03:13:45;;;;;;;1999.90;999.90;;;14.10;99.90;;;;;;4976130;28;20247;-67
2022/10/16 03:16:11;;;;;;;1999.90;999.90;;;14.10;99.90;;;;;;4976065;28;20175;-67
2022/10/16 03:18:36;;;;;;;1999.90;999.90;;;14.10;99.90;;;;;;4975872;28;20274;-68
2022/10/16 03:21:02;;;;;;;1999.90;999.90;;;14.10;99.90;;;;;;4976026;28;20186;-67
2022/10/16 03:23:28;;;;;;;1999.90;999.90;;;14.20;99.90;;;;;;4976046;28;20177;-67
2022/10/16 03:25:54;;;;;;;1999.90;999.90;;;14.30;99.90;;;;;;4975904;28;20287;-67
2022/10/16 03:28:20;;;;;;;1999.90;999.90;;;14.30;99.90;;;;;;4975728;28;20440;-67
2022/10/16 03:30:45;;;;;;;1999.90;999.90;;;14.30;99.90;;;;;;4975748;28;20199;-67
2022/10/16 03:33:11;;;;;;;1999.90;999.90;;;14.30;99.90;;;;;;4975891;28;20170;-68
2022/10/16 03:35:37;;;;;;;1999.90;999.90;;;14.40;99.90;;;;;;4975761;28;20175;-67
2022/10/16 03:38:02;;;;;;;1999.90;999.90;;;14.40;99.90;;;;;;4975503;28;20181;-67
2022/10/16 03:40:28;;;;;;;1999.90;999.90;;;14.40;99.90;;;;;;4975697;28;20630;-67
2022/10/16 03:42:57;;;;;;;1999.90;999.90;;;14.30;99.90;;;;;;4975658;28;20176;-67
2022/10/16 03:45:23;;;;;;;1999.90;999.90;;;14.30;99.90;;;;;;4975767;28;20303;-67
2022/10/16 03:47:48;;;;;;;1999.90;999.90;;;14.30;99.90;;;;;;4975291;28;20935;-68
2022/10/16 03:50:14;;;;;;;1999.90;999.90;;;14.30;99.90;;;;;;4976262;28;20408;-67
2022/10/16 03:52:40;;;;;;;1999.90;999.90;;;14.30;99.90;;;;;;4975998;28;20562;-67
2022/10/16 03:55:06;;;;;;;1999.90;999.90;;;14.30;99.90;;;;;;4976264;28;20415;-68
2022/10/16 03:57:32;;;;;;;1999.90;999.90;;;14.40;99.90;;;;;;4976211;28;20190;-67
2022/10/16 03:59:57;;;;;;;1999.90;999.90;;;14.40;99.90;;;;;;4976469;28;20914;-67
2022/10/16 04:02:23;;;;;;;1999.90;999.90;;;14.40;99.90;;;;;;4976247;28;20197;-68
2022/10/16 04:04:49;;;;;;;1999.90;999.90;;;14.40;99.90;;;;;;4975694;28;20198;-67
2022/10/16 04:07:14;;;;;;;1999.90;999.90;;;14.30;99.90;;;;;;4975344;28;20488;-67
2022/10/16 04:09:40;;;;;;;1999.90;999.90;;;14.30;99.90;;;;;;4975432;28;20229;-67
2022/10/16 04:12:06;;;;;;;1999.90;999.90;;;14.20;99.90;;;;;;4975321;28;20233;-67
2022/10/16 04:14:31;;;;;;;1999.90;999.90;;;14.20;99.90;;;;;;4975488;28;20603;-67
2022/10/16 04:16:57;;;;;;;1999.90;999.90;;;14.10;99.90;;;;;;4975198;28;20564;-67
2022/10/16 04:19:22;;;;;;;1999.90;999.90;;;14.10;99.90;;;;;;4975299;28;20166;-67
2022/10/16 04:21:48;;;;;;;1999.90;999.90;;;14.00;99.90;;;;;;4975249;28;20208;-67
2022/10/16 04:24:13;;;;;;;1999.90;999.90;;;14.00;99.90;;;;;;4956836;28;20175;-67
2022/10/16 04:26:39;;;;;;;1999.90;999.90;;;14.00;99.90;;;;;;4974912;28;20656;-67
2022/10/16 04:29:05;;;;;;;1999.90;999.90;;;14.00;99.90;;;;;;4975824;28;20173;-68
2022/10/16 04:31:31;;;;;;;1999.90;999.90;;;14.00;99.90;;;;;;4975644;28;20289;-67
2022/10/16 04:33:57;;;;;;;1999.90;999.90;;;13.90;99.90;;;;;;4974966;28;20408;-66
2022/10/16 04:36:22;;;;;;;1999.90;999.90;;;13.90;99.90;;;;;;4974851;28;20184;-67
2022/10/16 04:38:48;;;;;;;1999.90;999.90;;;13.90;99.90;;;;;;4976043;28;20245;-67
2022/10/16 04:41:13;;;;;;;1999.90;999.90;;;13.90;99.90;;;;;;4975461;28;20226;-67
2022/10/16 04:43:39;;;;;;;1999.90;999.90;;;13.80;99.90;;;;;;4975315;28;20174;-67
2022/10/16 04:46:05;;;;;;;1999.90;999.90;;;13.80;99.90;;;;;;4974304;28;20376;-67
2022/10/16 04:48:31;;;;;;;1999.90;999.90;;;13.80;99.90;;;;;;4974339;28;20163;-68
2022/10/16 04:50:57;;;;;;;1999.90;999.90;;;13.80;99.90;;;;;;4974532;28;20693;-67
2022/10/16 04:53:23;;;;;;;1999.90;999.90;;;13.90;99.90;;;;;;4975026;28;20404;-67
2022/10/16 04:55:48;;;;;;;1999.90;999.90;;;13.90;99.90;;;;;;4974832;28;20186;-67
2022/10/16 04:58:14;;;;;;;1999.90;999.90;;;13.80;99.90;;;;;;4974767;28;20805;-68
2022/10/16 05:00:39;;;;;;;1999.90;999.90;;;13.70;99.90;;;;;;4975176;28;20174;-67
2022/10/16 05:03:08;;;;;;;1999.90;999.90;;;13.70;99.90;;;;;;4974707;28;20176;-67
2022/10/16 05:05:34;;;;;;;1999.90;999.90;;;13.60;99.90;;;;;;4975687;28;20639;-67
2022/10/16 05:08:00;;;;;;;1999.90;999.90;;;13.70;99.90;;;;;;4975460;28;20481;-67
2022/10/16 05:10:26;;;;;;;1999.90;999.90;;;13.80;99.90;;;;;;4975266;28;20442;-68
2022/10/16 05:12:51;;;;;;;1999.90;999.90;;;13.80;99.90;;;;;;4975299;28;20189;-66
2022/10/16 05:15:18;;;;;;;1999.90;999.90;;;13.80;99.90;;;;;;4975301;28;20580;-67
2022/10/16 05:17:44;;;;;;;1999.90;999.90;;;13.70;99.90;;;;;;4974639;28;20171;-67
2022/10/16 05:20:09;;;;;;;1999.90;999.90;;;13.70;99.90;;;;;;4974974;28;20445;-67
2022/10/16 05:22:35;;;;;;;1999.90;999.90;;;13.60;99.90;;;;;;4974065;28;20472;-67
2022/10/16 05:25:01;;;;;;;1999.90;999.90;;;13.60;99.90;;;;;;4975026;28;20361;-67
2022/10/16 05:27:26;;;;;;;1999.90;999.90;;;13.60;99.90;;;;;;4975190;28;20173;-67
2022/10/16 05:29:52;;;;;;;1999.90;999.90;;;13.60;99.90;;;;;;4975264;28;20172;-67
2022/10/16 05:32:18;;;;;;;1999.90;999.90;;;13.60;99.90;;;;;;4975736;28;20400;-67
2022/10/16 05:34:44;;;;;;;1999.90;999.90;;;13.60;99.90;;;;;;4975162;28;20204;-67
2022/10/16 05:37:11;;;;;;;1999.90;999.90;;;13.60;99.90;;;;;;4975332;28;20410;-67
2022/10/16 05:39:37;;;;;;;1999.90;999.90;;;13.60;99.90;;;;;;4975557;28;20248;-67
2022/10/16 05:42:03;;;;;;;1999.90;999.90;;;13.60;99.90;;;;;;4975306;28;20508;-68
2022/10/16 05:44:29;;;;;;;1999.90;999.90;;;13.60;99.90;;;;;;4975951;28;20406;-67
2022/10/16 05:46:54;;;;;;;1999.90;999.90;;;13.60;99.90;;;;;;4973831;28;20460;-67
2022/10/16 05:49:20;;;;;;;1999.90;999.90;;;13.60;99.90;;;;;;4976839;28;20198;-67
2022/10/16 05:51:46;;;;;;;1999.90;999.90;;;13.60;99.90;;;;;;4975185;28;20594;-67
2022/10/16 05:54:11;;;;;;;1999.90;999.90;;;13.60;99.90;;;;;;4974847;28;20189;-67
2022/10/16 05:56:37;;;;;;;1999.90;999.90;;;13.60;99.90;;;;;;4975286;28;20227;-67
2022/10/16 05:59:06;;;;;;;1999.90;999.90;;;13.60;99.90;;;;;;4975468;28;20170;-67
2022/10/16 06:01:32;;;;;;;1999.90;999.90;;;13.70;99.90;;;;;;4975907;28;20669;-67
2022/10/16 06:03:57;;;;;;;1999.90;999.90;;;13.80;99.90;;;;;;4975684;28;20461;-68
2022/10/16 06:06:26;;;;;;;1999.90;999.90;;;13.90;99.90;;;;;;4974381;28;20938;-67
2022/10/16 06:08:53;;;;;;;1999.90;999.90;;;13.80;99.90;;;;;;4974582;28;20193;-67
2022/10/16 06:11:24;;;;;;;1999.90;999.90;;;13.80;99.90;;;;;;4974740;28;20935;-67
2022/10/16 06:13:51;;;;;;;1999.90;999.90;;;13.70;99.90;;;;;;4973355;28;20913;-67
2022/10/16 06:16:18;;;;;;;1999.90;999.90;;;13.70;99.90;;;;;;4973147;28;20411;-67
2022/10/16 06:18:44;;;;;;;1999.90;999.90;;;13.60;99.90;;;;;;4973424;28;20411;-67
2022/10/16 06:21:13;;;;;;;1999.90;999.90;;;13.60;99.90;;;;;;4973091;28;20510;-68
2022/10/16 06:23:39;;;;;;;1999.90;999.90;;;13.70;99.90;;;;;;4975647;28;20170;-67
2022/10/16 06:26:09;;;;;;;1999.90;999.90;;;13.70;99.90;;;;;;4973276;28;20453;-67
2022/10/16 06:28:35;;;;;;;1999.90;999.90;;;13.70;99.90;;;;;;4973390;28;20166;-67
2022/10/16 06:31:03;;;;;;;1999.90;999.90;;;13.80;99.90;;;;;;4973356;28;20508;-67
2022/10/16 06:33:28;;;;;;;1999.90;999.90;;;13.90;99.90;;;;;;4973631;28;20182;-67
2022/10/16 06:35:59;;;;;;;1999.90;999.90;;;13.90;99.90;;;;;;4974870;28;20424;-67
2022/10/16 06:38:25;;;;;;;1999.90;999.90;;;14.00;99.90;;;;;;4974297;28;20535;-68
2022/10/16 06:40:50;;;;;;;1999.90;999.90;;;14.00;99.90;;;;;;4975275;28;20439;-67
2022/10/16 06:43:16;;;;;;;1999.90;999.90;;;14.10;99.90;;;;;;4973758;28;20210;-67
2022/10/16 06:45:41;;;;;;;1999.90;999.90;;;14.10;99.90;;;;;;4973005;28;20197;-67
2022/10/16 06:48:07;;;;;;;1999.90;999.90;;;14.10;99.90;;;;;;4976736;28;20171;-67
2022/10/16 06:50:32;;;;;;;1999.90;999.90;;;14.20;99.90;;;;;;4976831;28;20637;-67
2022/10/16 06:52:58;;;;;;;1999.90;999.90;;;14.20;99.90;;;;;;4977015;28;20175;-67
2022/10/16 06:55:24;;;;;;;1999.90;999.90;;;14.30;99.90;;;;;;4977254;28;20169;-67
2022/10/16 06:57:49;;;;;;;1999.90;999.90;;;14.30;99.90;;;;;;4976774;28;20175;-67
2022/10/16 07:00:15;;;;;;;1999.90;999.90;;;14.40;99.90;;;;;;4977084;28;20548;-67
2022/10/16 07:02:41;;;;;;;1999.90;999.90;;;14.50;99.90;;;;;;4976861;28;20197;-67
2022/10/16 07:05:07;;;;;;;1999.90;999.90;;;14.60;99.90;;;;;;4976762;28;20706;-67
2022/10/16 07:07:32;;;;;;;1999.90;999.90;;;14.60;99.90;;;;;;4976538;28;20246;-67
2022/10/16 07:09:58;;;;;;;1999.90;999.90;;;14.60;99.90;;;;;;4976645;28;20167;-67
2022/10/16 07:12:23;;;;;;;1999.90;999.90;;;14.70;99.90;;;;;;4977402;28;20556;-67
2022/10/16 07:14:51;;;;;;;1999.90;999.90;;;14.70;99.90;;;;;;4979387;28;20175;-67
2022/10/16 07:17:17;;;;;;;1999.90;999.90;;;14.70;99.90;;;;;;4977788;28;20184;-67
2022/10/16 07:19:43;;;;;;;1999.90;999.90;;;14.70;99.90;;;;;;4978117;28;20411;-67
2022/10/16 07:22:09;;;;;;;1999.90;999.90;;;14.70;99.90;;;;;;4977373;28;20195;-67
2022/10/16 07:24:34;;;;;;;1999.90;999.90;;;14.70;99.90;;;;;;4977028;28;20171;-67
2022/10/16 07:27:00;;;;;;;1999.90;999.90;;;14.70;99.90;;;;;;4976487;28;20174;-68
2022/10/16 07:29:26;;;;;;;1999.90;999.90;;;14.70;99.90;;;;;;4976626;28;20245;-67
2022/10/16 07:31:51;;;;;;;1999.90;999.90;;;14.70;99.90;;;;;;4976344;28;20429;-68
2022/10/16 07:34:19;;;;;;;1999.90;999.90;;;14.80;99.90;;;;;;4978541;28;20223;-68
2022/10/16 07:36:47;;;;;;;1999.90;999.90;;;14.80;99.90;;;;;;4977448;28;20166;-67
2022/10/16 07:39:12;;;;;;;1999.90;999.90;;;14.80;99.90;;;;;;4977169;28;20456;-67
2022/10/16 07:41:38;;;;;;;1999.90;999.90;;;14.90;99.90;;;;;;4976449;28;20434;-68
2022/10/16 07:44:04;;;;;;;1999.90;999.90;;;14.90;99.90;;;;;;4976844;28;20655;-67
2022/10/16 07:46:30;;;;;;;1999.90;999.90;;;14.90;99.90;;;;;;4975879;28;20255;-67
2022/10/16 07:48:56;;;;;;;1999.90;999.90;;;15.00;99.90;;;;;;4975966;28;20481;-68
2022/10/16 07:51:23;;;;;;;1999.90;999.90;;;14.90;99.90;;;;;;4975765;28;20947;-68
2022/10/16 07:53:49;;;;;;;1999.90;999.90;;;15.00;99.90;;;;;;4976278;28;20169;-67
2022/10/16 07:56:16;;;;;;;1999.90;999.90;;;15.00;99.90;;;;;;4975861;28;20416;-68
2022/10/16 07:58:42;;;;;;;1999.90;999.90;;;15.10;99.90;;;;;;4974975;28;20417;-67
2022/10/16 08:01:11;;;;;;;1999.90;999.90;;;15.20;99.90;;;;;;4977035;28;20437;-67
2022/10/16 08:03:36;;;;;;;1999.90;999.90;;;15.20;99.90;;;;;;4975736;28;20167;-67
2022/10/16 08:06:03;;;;;;;1999.90;999.90;;;15.40;99.90;;;;;;4975856;28;20534;-68
2022/10/16 08:08:29;;;;;;;1999.90;999.90;;;15.50;99.90;;;;;;4976785;28;20176;-67
2022/10/16 08:10:55;;;;;;;1999.90;999.90;;;15.60;99.90;;;;;;4975488;28;20425;-67
2022/10/16 08:13:21;;;;;;;1999.90;999.90;;;15.60;99.90;;;;;;4976087;28;20417;-67
2022/10/16 08:15:47;;;;;;;1999.90;999.90;;;15.70;99.90;;;;;;4977157;28;20440;-67
2022/10/16 08:18:14;;;;;;;1999.90;999.90;;;15.70;99.90;;;;;;4976346;28;20417;-67
2022/10/16 08:20:41;;;;;;;1999.90;999.90;;;15.80;99.90;;;;;;4976558;28;20170;-67
2022/10/16 08:23:07;;;;;;;1999.90;999.90;;;15.70;99.90;;;;;;4976753;28;20908;-67
2022/10/16 08:25:36;;;;;;;1999.90;999.90;;;15.80;99.90;;;;;;4975920;28;20682;-67
2022/10/16 08:28:04;;;;;;;1999.90;999.90;;;15.90;99.90;;;;;;4976372;28;20478;-67
2022/10/16 08:30:30;;;;;;;1999.90;999.90;;;15.90;99.90;;;;;;4975798;28;20787;-67
2022/10/16 08:32:55;;;;;;;1999.90;999.90;;;16.00;99.90;;;;;;4975421;28;20412;-67
2022/10/16 08:35:21;;;;;;;1999.90;999.90;;;16.10;99.90;;;;;;4976094;28;20579;-68
2022/10/16 08:37:46;;;;;;;1999.90;999.90;;;16.20;99.90;;;;;;4974432;28;20171;-68
2022/10/16 08:40:19;;;;;;;1999.90;999.90;;;16.30;99.90;;;;;;4974963;28;20598;-67
2022/10/16 08:42:56;;;;;;;1999.90;999.90;;;16.40;99.90;;;;;;4974936;28;20211;-67
2022/10/16 08:45:25;;;;;;;1999.90;999.90;;;16.40;99.90;;;;;;4974586;28;20458;-67
2022/10/16 08:48:05;;;;;;;1999.90;999.90;;;16.50;99.90;;;;;;4975908;28;20417;-67
2022/10/16 08:50:36;;;;;;;1999.90;999.90;;;16.50;99.90;;;;;;4974761;28;20490;-67
2022/10/16 08:53:05;;;;;;;1999.90;999.90;;;16.50;99.90;;;;;;4986698;28;20402;-68
2022/10/16 08:55:34;;;;;;;1999.90;999.90;;;16.60;99.90;;;;;;4973643;28;20406;-68
2022/10/16 08:58:00;;;;;;;1999.90;999.90;;;16.70;99.90;;;;;;4973346;28;20429;-68
2022/10/16 09:00:26;;;;;;;1999.90;999.90;;;16.80;99.90;;;;;;4973359;28;20403;-68
2022/10/16 09:03:17;;;;;;;1999.90;999.90;;;16.80;99.90;;;;;;4977150;28;20438;-68
2022/10/16 09:05:54;;;;;;;1999.90;999.90;;;16.90;99.90;;;;;;4973505;28;20516;-68
2022/10/16 09:08:56;;;;;;;1999.90;999.90;;;17.00;99.90;;;;;;4973560;28;20401;-68
2022/10/16 09:11:45;;;;;;;1999.90;999.90;;;17.10;99.90;;;;;;4972264;28;20448;-68
2022/10/16 09:14:58;;;;;;;1999.90;999.90;;;17.20;99.90;;;;;;4971241;28;20400;-68
2022/10/16 09:17:32;;;;;;;1999.90;999.90;;;17.30;99.90;;;;;;4962999;28;20429;-68
2022/10/16 09:20:35;;;;;;;1999.90;999.90;;;17.40;99.90;;;;;;4972223;28;20412;-68
2022/10/16 09:23:04;;;;;;;1999.90;999.90;;;17.40;99.90;;;;;;4972469;28;20417;-68
2022/10/16 09:25:32;;;;;;;1999.90;999.90;;;17.50;99.90;;;;;;4972530;28;20852;-68
2022/10/16 09:27:58;;;;;;;1999.90;999.90;;;17.50;99.90;;;;;;4971367;28;20402;-68
2022/10/16 09:30:27;;;;;;;1999.90;999.90;;;17.60;99.90;;;;;;4972496;28;20433;-68
2022/10/16 09:32:54;;;;;;;1999.90;999.90;;;17.60;99.90;;;;;;4971636;28;20493;-68
2022/10/16 09:35:32;;;;;;;1999.90;999.90;;;17.70;99.90;;;;;;4971130;28;21087;-68
2022/10/16 09:37:58;;;;;;;1999.90;999.90;;;17.70;99.90;;;;;;4971271;28;20971;-67
2022/10/16 09:40:25;;;;;;;1999.90;999.90;;;17.90;99.90;;;;;;4971700;28;20410;-68
2022/10/16 09:42:57;;;;;;;1999.90;999.90;;;18.00;99.90;;;;;;4971379;28;20209;-68
2022/10/16 09:45:23;;;;;;;1999.90;999.90;;;18.00;99.90;;;;;;4971324;28;20455;-67
2022/10/16 09:47:49;;;;;;;1999.90;999.90;;;18.00;99.90;;;;;;4970929;28;20468;-67
2022/10/16 09:50:26;;;;;;;1999.90;999.90;;;18.10;99.90;;;;;;4970515;28;20410;-68
2022/10/16 09:53:04;;;;;;;1999.90;999.90;;;18.30;99.90;;;;;;4970759;28;20925;-72
2022/10/16 09:55:29;;;;;;;1999.90;999.90;;;18.30;99.90;;;;;;4970700;28;20409;-67
2022/10/16 09:57:55;;;;;;;1999.90;999.90;;;18.50;99.90;;;;;;4969957;28;20397;-67
2022/10/16 10:00:22;;;;;;;1999.90;999.90;;;18.60;99.90;;;;;;4971245;28;20180;-68
2022/10/16 10:02:49;;;;;;;1999.90;999.90;;;18.80;99.90;;;;;;4970685;28;20848;-68
2022/10/16 10:05:26;;;;;;;1999.90;999.90;;;18.90;99.90;;;;;;4953849;28;20459;-68
2022/10/16 10:08:00;;;;;;;1999.90;999.90;;;19.00;99.90;;;;;;4971333;28;20844;-68
2022/10/16 10:10:31;;;;;;;1999.90;999.90;;;19.20;99.90;;;;;;4971972;28;20408;-68
2022/10/16 10:12:57;;;;;;;1999.90;999.90;;;19.20;99.90;;;;;;4954029;28;20927;-67
2022/10/16 10:15:24;;;;;;;1999.90;999.90;;;19.40;99.90;;;;;;4971563;28;20418;-68
2022/10/16 10:17:59;;;;;;;1999.90;999.90;;;19.40;99.90;;;;;;4970956;28;20177;-68
2022/10/16 10:20:28;;;;;;;1999.90;999.90;;;19.50;99.90;;;;;;4971177;28;20410;-68
2022/10/16 10:22:55;;;;;;;1999.90;999.90;;;19.50;99.90;;;;;;4974570;28;20437;-68
2022/10/16 10:25:45;;;;;;;1999.90;999.90;;;19.50;99.90;;;;;;4974829;28;20454;-67
2022/10/16 10:28:22;;;;;;;1999.90;999.90;;;19.60;99.90;;;;;;4974310;28;20398;-68
2022/10/16 10:31:09;;;;;;;1999.90;999.90;;;19.70;99.90;;;;;;4975355;28;20419;-68
2022/10/16 10:33:35;;;;;;;1999.90;999.90;;;19.70;99.90;;;;;;4975079;28;20914;-67
2022/10/16 10:36:19;;;;;;;1999.90;999.90;;;19.90;99.90;;;;;;4975088;28;20474;-68
2022/10/16 10:38:58;;;;;;;1999.90;999.90;;;19.90;99.90;;;;;;4974295;28;20268;-67
2022/10/16 10:41:29;;;;;;;1999.90;999.90;;;19.90;99.90;;;;;;4974963;28;20955;-68
2022/10/16 10:44:23;;;;;;;1999.90;999.90;;;19.80;99.90;;;;;;4975205;28;20784;-67
2022/10/16 10:46:54;;;;;;;1999.90;999.90;;;19.80;99.90;;;;;;4974555;28;20462;-67
2022/10/16 10:49:39;;;;;;;1999.90;999.90;;;19.90;99.90;;;;;;4974749;28;20410;-68
2022/10/16 10:52:08;;;;;;;1999.90;999.90;;;20.00;99.90;;;;;;4975375;28;20458;-67
2022/10/16 10:55:09;;;;;;;1999.90;999.90;;;20.20;99.90;;;;;;4976523;28;20790;-68
2022/10/16 10:57:53;;;;;;;1999.90;999.90;;;20.50;99.90;;;;;;4973618;28;20799;-67
2022/10/16 11:00:41;;;;;;;1999.90;999.90;;;20.50;99.90;;;;;;4974514;28;20942;-69
2022/10/16 11:03:07;;;;;;;1999.90;999.90;;;20.30;99.90;;;;;;4974636;28;21032;-68
2022/10/16 11:06:07;;;;;;;1999.90;999.90;;;20.10;99.90;;;;;;4975127;28;20460;-68
2022/10/16 11:08:39;;;;;;;1999.90;999.90;;;20.00;99.90;;;;;;4932364;28;20182;-67
2022/10/16 11:11:09;;;;;;;1999.90;999.90;;;20.00;99.90;;;;;;4974310;28;20517;-68
2022/10/16 11:13:43;;;;;;;1999.90;999.90;;;20.10;99.90;;;;;;4974375;28;20405;-68
2022/10/16 11:16:20;;;;;;;1999.90;999.90;;;20.30;99.90;;;;;;4973950;28;20412;-68
2022/10/16 11:19:10;;;;;;;1999.90;999.90;;;20.70;99.90;;;;;;4973753;28;20902;-68
2022/10/16 11:21:50;;;;;;;1999.90;999.90;;;21.00;99.90;;;;;;4974503;28;20436;-68
2022/10/16 11:24:44;;;;;;;1999.90;999.90;;;21.40;99.90;;;;;;4974539;28;20417;-68
2022/10/16 11:27:16;;;;;;;1999.90;999.90;;;22.30;99.90;;;;;;4973512;28;20415;-67
2022/10/16 11:30:00;;;;;;;1999.90;999.90;;;23.30;99.90;;;;;;4974103;28;20402;-67
2022/10/16 11:32:49;;;;;;;1999.90;999.90;;;24.10;99.90;;;;;;4973817;28;20521;-68
2022/10/16 11:35:32;;;;;;;1999.90;999.90;;;24.60;99.90;;;;;;4974796;28;20493;-68
2022/10/16 11:37:59;;;;;;;1999.90;999.90;;;24.50;99.90;;;;;;4973140;28;20464;-68
2022/10/16 11:40:34;;;;;;;1999.90;999.90;;;24.80;99.90;;;;;;4973951;28;20818;-67
2022/10/16 11:43:19;;;;;;;1999.90;999.90;;;25.60;99.90;;;;;;4974927;28;20413;-68
2022/10/16 11:45:57;;;;;;;1999.90;999.90;;;26.40;95.10;;;;;;4974894;28;20453;-68
2022/10/16 11:49:00;;;;;;;1999.90;999.90;;;26.60;75.80;;;;;;4973192;28;20483;-68
2022/10/16 11:51:34;;;;;;;1999.90;999.90;;;26.20;72.30;;;;;;4974119;28;20785;-68
2022/10/16 11:54:18;;;;;;;1999.90;999.90;;;26.10;76.80;;;;;;4974466;28;20585;-68
2022/10/16 11:56:46;;;;;;;1999.90;999.90;;;26.40;67.20;;;;;;4973286;28;20410;-67
2022/10/16 11:59:27;;;;;;;1999.90;999.90;;;26.40;63.00;;;;;;4973615;28;20953;-68
2022/10/16 12:02:11;;;;;;;1999.90;999.90;;;26.00;72.60;;;;;;4974306;28;20403;-68
2022/10/16 12:04:45;;;;;;;1999.90;999.90;;;25.70;70.00;;;;;;4974033;28;20409;-67
2022/10/16 12:07:23;;;;;;;1999.90;999.90;;;25.20;68.00;;;;;;4971991;28;20970;-68
2022/10/16 12:09:49;;;;;;;1999.90;999.90;;;24.70;77.80;;;;;;4973370;28;20387;-68
2022/10/16 12:12:46;;;;;;;1999.90;999.90;;;24.30;84.70;;;;;;4975965;28;20421;-68